createdAt,value
2023-02-22T00:00:19.582Z,2.00
2023-02-22T00:01:19.408Z,2.07
2023-02-22T00:02:14.175Z,2.05
2023-02-22T00:03:01.249Z,2.01
2023-02-22T00:03:52.279Z,1.92
2023-02-22T00:04:42.388Z,2.03
2023-02-22T00:05:31.779Z,2.10
2023-02-22T00:06:21.451Z,2.05
2023-02-22T00:07:08.865Z,1.95
2023-02-22T00:08:01.073Z,1.88
2023-02-22T00:08:49.987Z,1.67
2023-02-22T00:09:36.939Z,1.73
2023-02-22T00:10:24.871Z,1.61
2023-02-22T00:11:11.951Z,1.71
2023-02-22T00:11:59.049Z,1.80
2023-02-22T00:12:49.854Z,1.86
2023-02-22T00:13:38.471Z,1.88
2023-02-22T00:14:27.701Z,1.81
2023-02-22T00:15:16.538Z,1.65
2023-02-22T00:16:03.491Z,1.74
2023-02-22T00:16:50.934Z,1.71
2023-02-22T00:17:37.815Z,1.79
2023-02-22T00:18:28.092Z,1.69
2023-02-22T00:19:14.998Z,1.79
2023-02-22T00:20:02.182Z,1.93
2023-02-22T00:20:49.143Z,1.94
2023-02-22T00:21:37.551Z,1.87
2023-02-22T00:22:24.515Z,1.81
2023-02-22T00:23:20.541Z,1.94
2023-02-22T00:24:23.401Z,1.83
2023-02-22T00:25:10.654Z,1.63
2023-02-22T00:25:58.901Z,1.69
2023-02-22T00:26:47.310Z,1.66
2023-02-22T00:27:34.206Z,1.63
2023-02-22T00:28:21.373Z,1.71
2023-02-22T00:29:09.215Z,1.73
2023-02-22T00:29:56.776Z,1.52
2023-02-22T00:30:43.928Z,1.55
2023-02-22T00:31:30.890Z,1.59
2023-02-22T00:32:18.012Z,1.70
2023-02-22T00:33:06.301Z,1.74
2023-02-22T00:33:53.201Z,1.77
2023-02-22T00:34:40.061Z,1.74
2023-02-22T00:35:29.421Z,1.65
2023-02-22T00:36:16.305Z,1.64
2023-02-22T00:37:04.435Z,1.69
2023-02-22T00:37:53.856Z,1.54
2023-02-22T00:38:41.935Z,1.46
2023-02-22T00:39:28.890Z,1.45
2023-02-22T00:40:19.162Z,1.50
2023-02-22T00:41:07.381Z,1.38
2023-02-22T00:41:54.279Z,1.52
2023-02-22T00:42:41.291Z,1.46
2023-02-22T00:43:28.304Z,1.53
2023-02-22T00:44:15.220Z,1.39
2023-02-22T00:45:03.567Z,1.47
2023-02-22T00:45:50.467Z,1.30
2023-02-22T00:46:37.490Z,1.12
2023-02-22T00:47:26.570Z,1.16
2023-02-22T00:48:13.482Z,1.16
2023-02-22T00:49:00.436Z,1.15
2023-02-22T00:49:47.362Z,1.25
2023-02-22T00:50:34.969Z,1.21
2023-02-22T00:51:21.940Z,1.18
2023-02-22T00:52:09.411Z,1.17
2023-02-22T00:52:57.211Z,1.05
2023-02-22T00:53:44.104Z,1.08
2023-02-22T00:54:31.530Z,1.09
2023-02-22T00:55:21.981Z,1.16
2023-02-22T00:56:08.935Z,1.15
2023-02-22T00:56:55.879Z,1.09
2023-02-22T00:57:42.874Z,1.16
2023-02-22T00:58:29.802Z,1.17
2023-02-22T00:59:17.163Z,1.14
2023-02-22T01:00:12.157Z,1.14
2023-02-22T01:00:59.162Z,1.00
2023-02-22T01:01:46.067Z,1.06
2023-02-22T01:02:33.005Z,1.17
2023-02-22T01:03:20.666Z,1.04
2023-02-22T01:04:07.860Z,1.14
2023-02-22T01:04:54.810Z,1.13
2023-02-22T01:05:41.907Z,1.06
2023-02-22T01:06:29.594Z,1.01
2023-02-22T01:07:16.500Z,1.05
2023-02-22T01:08:06.729Z,1.11
2023-02-22T01:08:53.656Z,1.15
2023-02-22T01:09:41.772Z,1.14
2023-02-22T01:10:30.622Z,1.14
2023-02-22T01:11:18.236Z,1.24
2023-02-22T01:12:05.721Z,1.07
2023-02-22T01:12:53.231Z,1.09
2023-02-22T01:13:40.210Z,1.15
2023-02-22T01:14:28.080Z,1.16
2023-02-22T01:15:15.426Z,0.91
2023-02-22T01:16:03.424Z,1.00
2023-02-22T01:16:51.380Z,1.00
2023-02-22T01:17:39.566Z,0.99
2023-02-22T01:18:26.605Z,0.92
2023-02-22T01:19:13.861Z,0.90
2023-02-22T01:20:00.781Z,1.06
2023-02-22T01:20:48.257Z,1.02
2023-02-22T01:21:35.199Z,0.88
2023-02-22T01:22:22.807Z,0.84
2023-02-22T01:23:10.782Z,0.83
2023-02-22T01:23:57.731Z,0.79
2023-02-22T01:24:44.649Z,0.78
2023-02-22T01:25:32.351Z,0.88
2023-02-22T01:26:19.280Z,0.96
2023-02-22T01:27:06.320Z,1.04
2023-02-22T01:27:54.375Z,1.07
2023-02-22T01:28:41.269Z,1.00
2023-02-22T01:29:28.461Z,0.91
2023-02-22T01:30:15.566Z,0.89
2023-02-22T01:31:03.415Z,0.76
2023-02-22T01:31:55.391Z,0.86
2023-02-22T01:32:43.016Z,0.97
2023-02-22T01:33:30.475Z,0.94
2023-02-22T01:34:18.360Z,0.73
2023-02-22T01:35:08.743Z,0.64
2023-02-22T01:35:55.639Z,0.56
2023-02-22T01:36:43.118Z,0.43
2023-02-22T01:37:29.998Z,0.57
2023-02-22T01:38:17.319Z,0.72
2023-02-22T01:39:04.468Z,0.67
2023-02-22T01:39:51.322Z,0.76
2023-02-22T01:40:47.850Z,0.66
2023-02-22T01:41:34.767Z,0.78
2023-02-22T01:42:21.766Z,0.78
2023-02-22T01:43:16.586Z,0.69
2023-02-22T01:44:20.328Z,0.79
2023-02-22T01:45:34.844Z,0.78
2023-02-22T01:46:25.163Z,0.82
2023-02-22T01:47:12.250Z,0.82
2023-02-22T01:48:04.591Z,0.71
2023-02-22T01:49:01.977Z,0.66
2023-02-22T01:49:50.955Z,0.73
2023-02-22T01:50:58.005Z,0.74
2023-02-22T01:51:47.799Z,0.79
2023-02-22T01:52:34.795Z,0.78
2023-02-22T01:53:25.809Z,0.79
2023-02-22T01:54:16.511Z,0.48
2023-02-22T01:55:03.280Z,0.53
2023-02-22T01:55:50.553Z,0.51
2023-02-22T01:56:38.741Z,0.45
2023-02-22T01:57:30.109Z,0.39
2023-02-22T01:58:17.486Z,0.48
2023-02-22T01:59:07.083Z,0.32
2023-02-22T01:59:56.647Z,0.38
2023-02-22T02:00:44.983Z,0.33
2023-02-22T02:01:31.993Z,0.42
2023-02-22T02:02:19.592Z,0.57
2023-02-22T02:03:10.966Z,0.49
2023-02-22T02:04:00.216Z,0.46
2023-02-22T02:04:47.345Z,0.36
2023-02-22T02:05:35.360Z,0.50
2023-02-22T02:06:22.354Z,0.40
2023-02-22T02:07:11.162Z,0.50
2023-02-22T02:07:59.534Z,0.59
2023-02-22T02:09:30.428Z,0.56
2023-02-22T02:10:17.359Z,0.56
2023-02-22T02:11:08.738Z,0.52
2023-02-22T02:11:56.985Z,0.35
2023-02-22T02:12:46.214Z,0.31
2023-02-22T02:13:33.244Z,0.31
2023-02-22T02:14:20.195Z,0.36
2023-02-22T02:15:21.344Z,0.39
2023-02-22T02:16:08.286Z,0.45
2023-02-22T02:16:56.435Z,0.47
2023-02-22T02:17:43.800Z,0.50
2023-02-22T02:18:32.797Z,0.42
2023-02-22T02:19:34.536Z,0.34
2023-02-22T02:20:42.917Z,0.20
2023-02-22T02:21:50.079Z,0.16
2023-02-22T02:22:55.520Z,0.15
2023-02-22T02:24:06.824Z,0.16
2023-02-22T02:25:05.444Z,0.10
2023-02-22T02:26:19.066Z,0.18
2023-02-22T02:27:12.889Z,0.15
2023-02-22T02:28:15.867Z,0.16
2023-02-22T02:29:40.377Z,0.19
2023-02-22T02:30:40.373Z,-0.02
2023-02-22T02:31:55.273Z,-0.01
2023-02-22T02:32:52.731Z,-0.09
2023-02-22T02:33:51.077Z,-0.08
2023-02-22T02:34:51.068Z,0.01
2023-02-22T02:35:46.915Z,-0.01
2023-02-22T02:36:58.581Z,0.10
2023-02-22T02:38:02.159Z,0.09
2023-02-22T02:38:56.127Z,0.05
2023-02-22T02:39:54.005Z,-0.06
2023-02-22T02:41:00.537Z,-0.03
2023-02-22T02:41:51.479Z,0.03
2023-02-22T02:42:55.829Z,0.09
2023-02-22T02:44:16.157Z,0.15
2023-02-22T02:45:10.290Z,0.09
2023-02-22T02:46:21.319Z,-0.05
2023-02-22T02:47:21.150Z,-0.04
2023-02-22T02:48:10.204Z,-0.06
2023-02-22T02:49:04.207Z,-0.21
2023-02-22T02:50:05.589Z,-0.19
2023-02-22T02:50:53.368Z,-0.06
2023-02-22T02:51:48.467Z,-0.07
2023-02-22T02:52:36.307Z,-0.01
2023-02-22T02:53:27.956Z,0.06
2023-02-22T02:54:15.638Z,-0.11
2023-02-22T02:55:04.618Z,-0.21
2023-02-22T02:55:51.575Z,-0.18
2023-02-22T02:56:43.007Z,-0.14
2023-02-22T02:57:29.957Z,-0.22
2023-02-22T02:58:20.707Z,-0.21
2023-02-22T02:59:30.698Z,-0.08
2023-02-22T03:00:24.749Z,-0.06
2023-02-22T03:01:13.741Z,-0.14
2023-02-22T03:02:21.750Z,-0.23
2023-02-22T03:03:18.859Z,-0.27
2023-02-22T03:04:14.607Z,-0.27
2023-02-22T03:05:23.029Z,-0.24
2023-02-22T03:06:50.488Z,-0.29
2023-02-22T03:08:07.900Z,-0.22
2023-02-22T03:09:11.010Z,-0.02
2023-02-22T03:10:16.790Z,-0.01
2023-02-22T03:11:22.147Z,0.06
2023-02-22T03:12:33.491Z,0.07
2023-02-22T03:13:50.030Z,0.13
2023-02-22T03:15:05.920Z,-0.01
2023-02-22T03:15:53.318Z,-0.07
2023-02-22T03:16:50.618Z,0.05
2023-02-22T03:17:48.363Z,0.09
2023-02-22T03:19:04.922Z,0.06
2023-02-22T03:19:58.582Z,0.01
2023-02-22T03:20:50.989Z,-0.03
2023-02-22T03:21:52.882Z,0.06
2023-02-22T03:22:57.689Z,-0.01
2023-02-22T03:23:52.081Z,0.04
2023-02-22T03:25:07.376Z,0.05
2023-02-22T03:26:00.272Z,0.04
2023-02-22T03:26:52.983Z,-0.01
2023-02-22T03:27:55.230Z,0.07
2023-02-22T03:28:44.493Z,0.01
2023-02-22T03:29:36.830Z,-0.07
2023-02-22T03:30:28.083Z,-0.10
2023-02-22T03:31:20.604Z,-0.11
2023-02-22T03:32:11.094Z,-0.10
2023-02-22T03:33:02.002Z,-0.01
2023-02-22T03:33:57.772Z,-0.14
2023-02-22T03:34:50.931Z,-0.05
2023-02-22T03:35:42.944Z,-0.06
2023-02-22T03:36:33.433Z,0.06
2023-02-22T03:37:27.146Z,0.08
2023-02-22T03:38:19.334Z,-0.07
2023-02-22T03:39:09.870Z,-0.10
2023-02-22T03:39:58.354Z,-0.08
2023-02-22T03:40:48.716Z,-0.09
2023-02-22T03:41:38.844Z,-0.17
2023-02-22T03:42:29.855Z,-0.16
2023-02-22T03:43:21.499Z,-0.14
2023-02-22T03:44:15.832Z,-0.15
2023-02-22T03:45:05.324Z,-0.23
2023-02-22T03:45:53.153Z,-0.22
2023-02-22T03:46:40.892Z,-0.36
2023-02-22T03:47:40.280Z,-0.32
2023-02-22T03:48:55.024Z,-0.25
2023-02-22T03:49:52.734Z,-0.09
2023-02-22T03:50:39.692Z,-0.17
2023-02-22T03:51:26.773Z,-0.10
2023-02-22T03:52:13.876Z,0.02
2023-02-22T03:53:00.752Z,-0.08
2023-02-22T03:53:50.558Z,-0.14
2023-02-22T03:54:37.725Z,-0.22
2023-02-22T03:55:25.020Z,-0.10
2023-02-22T03:56:15.754Z,-0.10
2023-02-22T03:57:10.251Z,-0.06
2023-02-22T03:58:03.484Z,-0.13
2023-02-22T03:58:51.556Z,-0.09
2023-02-22T03:59:39.230Z,-0.06
2023-02-22T04:00:29.862Z,-0.07
2023-02-22T04:01:17.108Z,-0.02
2023-02-22T04:02:04.241Z,-0.14
2023-02-22T04:02:51.469Z,-0.07
2023-02-22T04:03:38.352Z,-0.21
2023-02-22T04:04:25.854Z,-0.21
2023-02-22T04:05:14.426Z,-0.25
2023-02-22T04:06:01.304Z,-0.28
2023-02-22T04:06:48.262Z,-0.20
2023-02-22T04:07:35.298Z,-0.29
2023-02-22T04:08:22.212Z,-0.18
2023-02-22T04:09:09.152Z,-0.24
2023-02-22T04:09:56.041Z,-0.12
2023-02-22T04:10:43.344Z,-0.18
2023-02-22T04:11:30.331Z,-0.18
2023-02-22T04:12:17.340Z,-0.17
2023-02-22T04:13:07.180Z,-0.35
2023-02-22T04:13:55.010Z,-0.32
2023-02-22T04:14:41.878Z,-0.21
2023-02-22T04:15:28.789Z,-0.02
2023-02-22T04:16:15.865Z,-0.02
2023-02-22T04:17:02.875Z,-0.06
2023-02-22T04:17:49.872Z,-0.14
2023-02-22T04:18:36.823Z,-0.17
2023-02-22T04:19:23.735Z,-0.30
2023-02-22T04:20:13.726Z,-0.17
2023-02-22T04:21:00.633Z,-0.13
2023-02-22T04:21:47.574Z,-0.19
2023-02-22T04:22:34.450Z,-0.29
2023-02-22T04:23:21.554Z,-0.22
2023-02-22T04:24:08.475Z,-0.28
2023-02-22T04:24:55.447Z,-0.18
2023-02-22T04:25:42.310Z,-0.33
2023-02-22T04:26:29.204Z,-0.35
2023-02-22T04:27:16.704Z,-0.32
2023-02-22T04:28:03.981Z,-0.39
2023-02-22T04:28:50.885Z,-0.39
2023-02-22T04:29:37.862Z,-0.19
2023-02-22T04:30:24.930Z,-0.39
2023-02-22T04:31:11.932Z,-0.46
2023-02-22T04:31:58.826Z,-0.39
2023-02-22T04:32:46.282Z,-0.30
2023-02-22T04:33:33.289Z,-0.37
2023-02-22T04:34:20.171Z,-0.37
2023-02-22T04:35:07.515Z,-0.36
2023-02-22T04:35:54.467Z,-0.27
2023-02-22T04:36:42.593Z,-0.33
2023-02-22T04:37:29.504Z,-0.29
2023-02-22T04:38:16.428Z,-0.33
2023-02-22T04:39:03.402Z,-0.31
2023-02-22T04:39:50.338Z,-0.34
2023-02-22T04:40:37.224Z,-0.23
2023-02-22T04:41:25.593Z,-0.21
2023-02-22T04:42:12.621Z,-0.17
2023-02-22T04:43:00.587Z,-0.32
2023-02-22T04:43:47.542Z,-0.26
2023-02-22T04:44:34.480Z,-0.16
2023-02-22T04:45:21.418Z,-0.08
2023-02-22T04:46:08.859Z,-0.05
2023-02-22T04:46:56.851Z,-0.15
2023-02-22T04:47:43.761Z,-0.06
2023-02-22T04:48:31.065Z,-0.03
2023-02-22T04:49:17.993Z,0.01
2023-02-22T04:50:06.585Z,-0.15
2023-02-22T04:50:53.548Z,-0.14
2023-02-22T04:51:41.453Z,-0.07
2023-02-22T04:52:28.573Z,-0.06
2023-02-22T04:53:15.427Z,-0.15
2023-02-22T04:54:02.472Z,-0.15
2023-02-22T04:54:49.398Z,-0.05
2023-02-22T04:55:36.331Z,0.00
2023-02-22T04:56:23.592Z,-0.01
2023-02-22T04:57:10.530Z,-0.06
2023-02-22T04:57:57.743Z,0.05
2023-02-22T04:58:44.741Z,-0.06
2023-02-22T04:59:33.254Z,-0.07
2023-02-22T05:00:21.986Z,-0.03
2023-02-22T05:01:08.884Z,0.06
2023-02-22T05:01:55.873Z,0.04
2023-02-22T05:02:42.825Z,-0.06
2023-02-22T05:03:29.733Z,-0.02
2023-02-22T05:04:16.652Z,0.04
2023-02-22T05:05:03.701Z,0.03
2023-02-22T05:05:52.581Z,0.00
2023-02-22T05:06:39.519Z,0.08
2023-02-22T05:07:26.420Z,0.02
2023-02-22T05:08:13.293Z,-0.06
2023-02-22T05:09:00.286Z,0.02
2023-02-22T05:09:47.245Z,-0.04
2023-02-22T05:10:34.213Z,-0.05
2023-02-22T05:11:21.302Z,0.03
2023-02-22T05:12:08.289Z,0.08
2023-02-22T05:12:55.209Z,0.10
2023-02-22T05:13:42.511Z,0.12
2023-02-22T05:14:29.432Z,-0.07
2023-02-22T05:15:19.072Z,-0.16
2023-02-22T05:16:06.193Z,-0.10
2023-02-22T05:16:56.015Z,-0.27
2023-02-22T05:17:42.922Z,-0.20
2023-02-22T05:18:30.063Z,-0.35
2023-02-22T05:19:17.031Z,-0.35
2023-02-22T05:20:04.682Z,-0.19
2023-02-22T05:20:51.741Z,-0.13
2023-02-22T05:21:40.458Z,-0.18
2023-02-22T05:22:27.344Z,-0.15
2023-02-22T05:23:14.250Z,-0.06
2023-02-22T05:24:01.138Z,0.01
2023-02-22T05:24:48.066Z,0.04
2023-02-22T05:25:34.979Z,0.14
2023-02-22T05:26:21.997Z,0.12
2023-02-22T05:27:08.932Z,0.05
2023-02-22T05:27:58.360Z,-0.09
2023-02-22T05:28:45.504Z,0.02
2023-02-22T05:29:32.712Z,-0.02
2023-02-22T05:30:23.890Z,-0.12
2023-02-22T05:31:10.937Z,-0.30
2023-02-22T05:31:58.646Z,-0.27
2023-02-22T05:32:47.177Z,-0.14
2023-02-22T05:33:34.211Z,-0.07
2023-02-22T05:34:21.130Z,-0.05
2023-02-22T05:35:08.632Z,0.11
2023-02-22T05:35:56.302Z,0.11
2023-02-22T05:36:43.212Z,0.17
2023-02-22T05:37:30.142Z,0.18
2023-02-22T05:38:17.052Z,0.11
2023-02-22T05:39:05.627Z,0.20
2023-02-22T05:39:52.552Z,0.29
2023-02-22T05:40:39.474Z,0.24
2023-02-22T05:41:26.432Z,0.32
2023-02-22T05:42:13.329Z,0.33
2023-02-22T05:43:02.373Z,0.43
2023-02-22T05:43:49.310Z,0.48
2023-02-22T05:44:36.263Z,0.46
2023-02-22T05:45:25.366Z,0.46
2023-02-22T05:46:12.470Z,0.45
2023-02-22T05:46:59.374Z,0.50
2023-02-22T05:47:46.814Z,0.64
2023-02-22T05:48:34.276Z,0.71
2023-02-22T05:49:21.137Z,0.81
2023-02-22T05:50:08.964Z,0.84
2023-02-22T05:50:56.339Z,0.77
2023-02-22T05:51:43.222Z,0.75
2023-02-22T05:52:30.132Z,0.80
2023-02-22T05:53:17.191Z,0.80
2023-02-22T05:54:04.293Z,0.87
2023-02-22T05:54:51.482Z,0.89
2023-02-22T05:55:38.375Z,0.98
2023-02-22T05:56:27.033Z,1.07
2023-02-22T05:57:13.954Z,1.12
2023-02-22T05:58:01.990Z,0.98
2023-02-22T05:58:49.023Z,1.02
2023-02-22T05:59:35.948Z,1.15
2023-02-22T06:00:26.576Z,1.22
2023-02-22T06:01:13.325Z,1.29
2023-02-22T06:02:00.270Z,1.40
2023-02-22T06:02:47.363Z,1.43
2023-02-22T06:03:34.240Z,1.45
2023-02-22T06:04:21.150Z,1.51
2023-02-22T06:05:08.690Z,1.57
2023-02-22T06:05:55.704Z,1.63
2023-02-22T06:06:42.582Z,1.67
2023-02-22T06:07:29.500Z,1.56
2023-02-22T06:08:17.555Z,1.65
2023-02-22T06:09:04.527Z,1.73
2023-02-22T06:09:51.491Z,1.66
2023-02-22T06:10:38.432Z,1.73
2023-02-22T06:11:25.360Z,1.74
2023-02-22T06:12:12.272Z,1.80
2023-02-22T06:13:00.674Z,1.81
2023-02-22T06:13:52.594Z,1.54
2023-02-22T06:14:41.190Z,1.59
2023-02-22T06:15:29.360Z,1.74
2023-02-22T06:16:16.305Z,1.88
2023-02-22T06:17:03.341Z,1.85
2023-02-22T06:17:51.223Z,1.82
2023-02-22T06:18:38.130Z,1.85
2023-02-22T06:19:25.118Z,1.82
2023-02-22T06:20:13.665Z,1.86
2023-02-22T06:21:00.934Z,1.88
2023-02-22T06:21:52.469Z,1.69
2023-02-22T06:22:41.460Z,1.74
2023-02-22T06:23:28.361Z,1.84
2023-02-22T06:24:15.213Z,1.92
2023-02-22T06:25:05.838Z,2.03
2023-02-22T06:25:52.658Z,2.17
2023-02-22T06:26:39.617Z,2.36
2023-02-22T06:27:26.498Z,2.65
2023-02-22T06:28:13.477Z,2.68
2023-02-22T06:29:00.436Z,2.63
2023-02-22T06:29:47.517Z,2.60
2023-02-22T06:30:34.474Z,2.59
2023-02-22T06:31:21.407Z,2.70
2023-02-22T06:32:08.424Z,2.85
2023-02-22T06:32:55.360Z,2.89
2023-02-22T06:33:42.405Z,2.86
2023-02-22T06:34:29.301Z,2.79
2023-02-22T06:35:16.828Z,2.86
2023-02-22T06:36:04.019Z,2.92
2023-02-22T06:36:50.985Z,3.01
2023-02-22T06:37:38.919Z,3.04
2023-02-22T06:38:27.956Z,3.08
2023-02-22T06:39:16.200Z,3.02
2023-02-22T06:40:05.701Z,3.27
2023-02-22T06:40:52.748Z,3.35
2023-02-22T06:41:40.377Z,3.38
2023-02-22T06:42:27.304Z,3.33
2023-02-22T06:43:14.317Z,3.40
2023-02-22T06:44:01.210Z,3.50
2023-02-22T06:44:49.348Z,3.58
2023-02-22T06:45:37.064Z,3.62
2023-02-22T06:46:24.310Z,3.65
2023-02-22T06:47:11.207Z,3.81
2023-02-22T06:47:58.118Z,3.93
2023-02-22T06:48:45.132Z,4.05
2023-02-22T06:49:32.006Z,4.13
2023-02-22T06:50:30.916Z,4.15
2023-02-22T06:51:18.078Z,4.20
2023-02-22T06:52:07.924Z,4.30
2023-02-22T06:52:57.437Z,4.35
2023-02-22T06:53:45.151Z,4.37
2023-02-22T06:54:32.062Z,4.38
2023-02-22T06:55:23.676Z,4.26
2023-02-22T06:56:10.696Z,4.19
2023-02-22T06:57:03.122Z,4.33
2023-02-22T06:57:50.298Z,4.43
2023-02-22T06:58:37.276Z,4.54
2023-02-22T06:59:24.297Z,4.58
2023-02-22T07:00:11.985Z,4.57
2023-02-22T07:00:58.859Z,4.52
2023-02-22T07:01:45.904Z,4.40
2023-02-22T07:02:32.867Z,4.46
2023-02-22T07:03:19.900Z,4.37
2023-02-22T07:04:06.941Z,4.39
2023-02-22T07:04:54.030Z,4.38
2023-02-22T07:05:40.938Z,4.42
2023-02-22T07:06:28.076Z,4.53
2023-02-22T07:07:15.049Z,4.65
2023-02-22T07:08:05.790Z,4.66
2023-02-22T07:08:52.900Z,4.75
2023-02-22T07:09:39.989Z,4.78
2023-02-22T07:10:30.304Z,4.88
2023-02-22T07:11:18.267Z,4.90
2023-02-22T07:12:05.452Z,4.84
2023-02-22T07:12:53.152Z,4.80
2023-02-22T07:13:40.210Z,4.71
2023-02-22T07:14:27.548Z,4.66
2023-02-22T07:15:14.722Z,4.77
2023-02-22T07:16:01.787Z,4.93
2023-02-22T07:16:48.656Z,5.03
2023-02-22T07:17:35.552Z,5.10
2023-02-22T07:18:22.403Z,5.15
2023-02-22T07:19:09.246Z,5.22
2023-02-22T07:19:56.849Z,5.23
2023-02-22T07:20:44.120Z,5.26
2023-02-22T07:21:31.334Z,5.24
2023-02-22T07:22:18.163Z,5.33
2023-02-22T07:23:05.666Z,5.34
2023-02-22T07:23:57.018Z,5.22
2023-02-22T07:24:44.021Z,5.31
2023-02-22T07:25:31.082Z,5.45
2023-02-22T07:26:18.034Z,5.48
2023-02-22T07:27:05.013Z,5.58
2023-02-22T07:27:53.154Z,5.59
2023-02-22T07:28:40.026Z,5.64
2023-02-22T07:29:26.863Z,5.71
2023-02-22T07:30:25.693Z,5.72
2023-02-22T07:31:12.663Z,5.83
2023-02-22T07:31:59.625Z,5.91
2023-02-22T07:32:47.450Z,5.96
2023-02-22T07:33:35.698Z,5.88
2023-02-22T07:34:22.627Z,5.95
2023-02-22T07:35:21.213Z,6.01
2023-02-22T07:36:08.764Z,6.09
2023-02-22T07:36:55.685Z,6.18
2023-02-22T07:37:42.746Z,6.24
2023-02-22T07:38:29.603Z,6.26
2023-02-22T07:39:16.448Z,6.32
2023-02-22T07:40:03.421Z,6.24
2023-02-22T07:40:50.393Z,6.34
2023-02-22T07:41:37.384Z,6.44
2023-02-22T07:42:24.281Z,6.48
2023-02-22T07:43:20.790Z,6.51
2023-02-22T07:44:07.722Z,6.56
2023-02-22T07:44:54.593Z,6.50
2023-02-22T07:45:41.606Z,6.45
2023-02-22T07:46:28.483Z,6.54
2023-02-22T07:47:15.369Z,6.67
2023-02-22T07:48:04.106Z,6.76
2023-02-22T07:48:53.122Z,6.65
2023-02-22T07:49:40.014Z,6.57
2023-02-22T07:50:30.957Z,6.72
2023-02-22T07:51:20.875Z,6.82
2023-02-22T07:52:07.983Z,6.93
2023-02-22T07:52:56.149Z,7.04
2023-02-22T07:53:43.054Z,7.05
2023-02-22T07:54:29.961Z,7.10
2023-02-22T07:55:19.057Z,7.08
2023-02-22T07:56:08.984Z,7.20
2023-02-22T07:56:55.912Z,7.25
2023-02-22T07:57:44.253Z,7.34
2023-02-22T07:58:31.819Z,7.38
2023-02-22T07:59:18.810Z,7.43
2023-02-22T08:00:06.253Z,7.50
2023-02-22T08:00:53.372Z,7.56
2023-02-22T08:01:40.465Z,7.62
2023-02-22T08:02:27.438Z,7.68
2023-02-22T08:03:16.798Z,7.72
2023-02-22T08:04:03.734Z,7.71
2023-02-22T08:04:52.706Z,7.63
2023-02-22T08:05:41.419Z,7.60
2023-02-22T08:06:28.506Z,7.65
2023-02-22T08:07:15.354Z,7.73
2023-02-22T08:08:02.595Z,7.78
2023-02-22T08:08:49.493Z,7.88
2023-02-22T08:09:36.405Z,7.86
2023-02-22T08:10:27.624Z,7.93
2023-02-22T08:11:14.799Z,7.98
2023-02-22T08:12:01.866Z,8.06
2023-02-22T08:12:49.724Z,8.07
2023-02-22T08:13:37.505Z,8.09
2023-02-22T08:14:24.322Z,8.21
2023-02-22T08:15:21.944Z,8.29
2023-02-22T08:16:09.479Z,8.36
2023-02-22T08:16:56.660Z,8.47
2023-02-22T08:17:43.802Z,8.55
2023-02-22T08:18:30.877Z,8.46
2023-02-22T08:19:17.747Z,8.50
2023-02-22T08:20:05.004Z,8.62
2023-02-22T08:20:52.759Z,8.75
2023-02-22T08:21:41.637Z,8.81
2023-02-22T08:22:29.320Z,8.89
2023-02-22T08:23:17.437Z,8.96
2023-02-22T08:24:04.673Z,8.93
2023-02-22T08:24:54.484Z,8.97
2023-02-22T08:25:41.544Z,9.00
2023-02-22T08:26:28.444Z,9.02
2023-02-22T08:27:15.536Z,9.11
2023-02-22T08:28:10.969Z,9.14
2023-02-22T08:28:57.825Z,9.20
2023-02-22T08:29:44.685Z,9.31
2023-02-22T08:30:32.835Z,9.39
2023-02-22T08:31:20.041Z,9.49
2023-02-22T08:32:07.295Z,9.56
2023-02-22T08:32:54.505Z,9.57
2023-02-22T08:33:41.722Z,9.69
2023-02-22T08:34:28.963Z,9.79
2023-02-22T08:35:17.366Z,9.86
2023-02-22T08:36:04.660Z,9.92
2023-02-22T08:36:51.544Z,9.95
2023-02-22T08:37:43.024Z,9.94
2023-02-22T08:38:33.605Z,10.06
2023-02-22T08:39:20.960Z,10.17
2023-02-22T08:40:08.413Z,10.27
2023-02-22T08:40:55.409Z,10.34
2023-02-22T08:41:42.316Z,10.46
2023-02-22T08:42:29.235Z,10.53
2023-02-22T08:43:16.515Z,10.58
2023-02-22T08:44:03.541Z,10.53
2023-02-22T08:44:50.473Z,10.54
2023-02-22T08:45:37.457Z,10.67
2023-02-22T08:46:24.425Z,10.77
2023-02-22T08:47:11.510Z,10.87
2023-02-22T08:47:59.022Z,10.91
2023-02-22T08:48:52.747Z,10.94
2023-02-22T08:49:41.903Z,11.04
2023-02-22T08:50:32.299Z,11.06
2023-02-22T08:51:19.952Z,11.12
2023-02-22T08:52:06.837Z,11.10
2023-02-22T08:52:59.496Z,11.12
2023-02-22T08:53:46.540Z,11.14
2023-02-22T08:54:33.407Z,11.12
2023-02-22T08:55:26.679Z,11.13
2023-02-22T08:56:13.700Z,11.19
2023-02-22T08:57:00.608Z,11.25
2023-02-22T08:57:47.509Z,11.30
2023-02-22T08:58:34.476Z,11.33
2023-02-22T08:59:21.399Z,11.30
2023-02-22T09:00:08.809Z,11.29
2023-02-22T09:00:55.705Z,11.40
2023-02-22T09:01:42.589Z,11.37
2023-02-22T09:02:29.680Z,11.22
2023-02-22T09:03:16.649Z,11.27
2023-02-22T09:04:03.685Z,11.32
2023-02-22T09:04:50.978Z,11.40
2023-02-22T09:05:38.089Z,11.55
2023-02-22T09:06:25.322Z,11.22
2023-02-22T09:07:12.866Z,11.24
2023-02-22T09:08:00.747Z,11.34
2023-02-22T09:08:47.689Z,11.36
2023-02-22T09:09:34.956Z,11.41
2023-02-22T09:10:25.876Z,11.49
2023-02-22T09:11:12.718Z,11.49
2023-02-22T09:11:59.660Z,11.64
2023-02-22T09:12:46.562Z,11.78
2023-02-22T09:13:33.448Z,11.75
2023-02-22T09:14:20.409Z,11.80
2023-02-22T09:15:07.698Z,11.70
2023-02-22T09:15:54.595Z,11.77
2023-02-22T09:16:41.570Z,11.87
2023-02-22T09:17:28.455Z,11.84
2023-02-22T09:18:15.391Z,11.68
2023-02-22T09:19:02.262Z,11.80
2023-02-22T09:19:49.116Z,11.93
2023-02-22T09:20:36.518Z,11.86
2023-02-22T09:21:23.426Z,11.85
2023-02-22T09:22:12.422Z,11.92
2023-02-22T09:22:59.751Z,11.96
2023-02-22T09:23:48.596Z,12.00
2023-02-22T09:24:36.308Z,11.98
2023-02-22T09:25:24.084Z,12.01
2023-02-22T09:26:11.000Z,11.98
2023-02-22T09:27:00.012Z,12.03
2023-02-22T09:27:51.647Z,12.01
2023-02-22T09:28:38.676Z,11.97
2023-02-22T09:29:26.917Z,11.81
2023-02-22T09:30:34.177Z,11.92
2023-02-22T09:31:21.485Z,11.95
2023-02-22T09:32:08.903Z,12.08
2023-02-22T09:32:59.275Z,11.99
2023-02-22T09:33:47.473Z,12.04
2023-02-22T09:34:35.537Z,11.77
2023-02-22T09:35:27.643Z,11.89
2023-02-22T09:36:14.926Z,12.00
2023-02-22T09:37:02.518Z,12.15
2023-02-22T09:37:49.467Z,12.22
2023-02-22T09:38:36.506Z,12.19
2023-02-22T09:39:23.836Z,12.16
2023-02-22T09:40:25.251Z,12.22
2023-02-22T09:41:35.165Z,12.19
2023-02-22T09:42:45.853Z,12.33
2023-02-22T09:43:51.105Z,12.25
2023-02-22T09:44:51.773Z,12.16
2023-02-22T09:45:58.238Z,12.23
2023-02-22T09:46:46.105Z,12.27
2023-02-22T09:47:58.611Z,12.35
2023-02-22T09:48:59.634Z,12.33
2023-02-22T09:50:00.378Z,12.23
2023-02-22T09:50:48.575Z,12.26
2023-02-22T09:51:43.080Z,12.34
2023-02-22T09:52:44.410Z,12.51
2023-02-22T09:53:42.036Z,12.59
2023-02-22T09:54:42.075Z,12.48
2023-02-22T09:55:41.494Z,12.18
2023-02-22T09:56:29.474Z,12.22
2023-02-22T09:57:20.479Z,12.05
2023-02-22T09:58:34.360Z,12.09
2023-02-22T09:59:28.007Z,12.08
2023-02-22T10:00:23.753Z,12.29
2023-02-22T10:01:23.340Z,12.49
2023-02-22T10:02:32.558Z,12.56
2023-02-22T10:03:30.236Z,12.77
2023-02-22T10:04:24.711Z,12.94
2023-02-22T10:05:23.853Z,13.02
2023-02-22T10:06:12.975Z,13.11
2023-02-22T10:07:31.399Z,13.22
2023-02-22T10:08:19.367Z,12.98
2023-02-22T10:09:09.185Z,12.97
2023-02-22T10:09:57.841Z,12.93
2023-02-22T10:10:47.655Z,12.84
2023-02-22T10:11:56.443Z,12.82
2023-02-22T10:12:49.563Z,12.94
2023-02-22T10:13:42.458Z,12.94
2023-02-22T10:14:58.318Z,13.03
2023-02-22T10:15:58.770Z,12.92
2023-02-22T10:17:06.428Z,13.02
2023-02-22T10:18:00.317Z,13.10
2023-02-22T10:19:22.709Z,12.83
2023-02-22T10:20:41.548Z,13.03
2023-02-22T10:21:40.263Z,13.18
2023-02-22T10:22:51.782Z,13.30
2023-02-22T10:23:57.303Z,13.24
2023-02-22T10:25:18.316Z,13.08
2023-02-22T10:26:22.203Z,13.00
2023-02-22T10:27:58.219Z,12.97
2023-02-22T10:28:55.801Z,13.04
2023-02-22T10:29:53.254Z,13.18
2023-02-22T10:30:44.148Z,13.17
2023-02-22T10:31:33.897Z,13.15
2023-02-22T10:32:28.463Z,13.27
2023-02-22T10:33:22.381Z,13.40
2023-02-22T10:34:16.743Z,13.52
2023-02-22T10:35:07.213Z,13.67
2023-02-22T10:35:54.649Z,13.80
2023-02-22T10:36:44.064Z,13.81
2023-02-22T10:37:33.416Z,13.89
2023-02-22T10:38:25.823Z,14.00
2023-02-22T10:39:25.704Z,13.93
2023-02-22T10:40:17.525Z,14.01
2023-02-22T10:41:10.264Z,13.93
2023-02-22T10:42:05.975Z,14.04
2023-02-22T10:42:52.929Z,14.01
2023-02-22T10:43:41.334Z,14.03
2023-02-22T10:44:29.203Z,13.99
2023-02-22T10:45:30.987Z,13.94
2023-02-22T10:46:21.382Z,13.81
2023-02-22T10:47:12.033Z,13.70
2023-02-22T10:47:59.896Z,13.59
2023-02-22T10:48:49.315Z,13.36
2023-02-22T10:49:45.046Z,13.33
2023-02-22T10:50:32.555Z,13.33
2023-02-22T10:51:19.412Z,13.35
2023-02-22T10:52:17.896Z,13.33
2023-02-22T10:53:04.805Z,13.37
2023-02-22T10:54:26.354Z,13.56
2023-02-22T10:55:16.099Z,13.51
2023-02-22T10:56:13.817Z,13.57
2023-02-22T10:57:01.044Z,13.62
2023-02-22T10:57:50.597Z,13.54
2023-02-22T10:58:45.127Z,13.45
2023-02-22T10:59:36.891Z,13.61
2023-02-22T11:00:29.871Z,13.66
2023-02-22T11:01:20.742Z,13.82
2023-02-22T11:02:21.598Z,13.83